sensor_id;sensor_type;location;lat;lon;timestamp;temperature;humidity
37285;DHT22;23172;53.550;9.964;2022-07-23T00:01:58;21.70;54.10
37285;DHT22;23172;53.550;9.964;2022-07-23T00:07:01;21.60;53.90
37285;DHT22;23172;53.550;9.964;2022-07-23T00:12:04;21.60;54.00
37285;DHT22;23172;53.550;9.964;2022-07-23T00:17:06;21.60;54.20
37285;DHT22;23172;53.550;9.964;2022-07-23T00:22:09;21.60;54.40
37285;DHT22;23172;53.550;9.964;2022-07-23T00:27:11;21.60;54.80
37285;DHT22;23172;53.550;9.964;2022-07-23T00:32:13;21.50;55.00
37285;DHT22;23172;53.550;9.964;2022-07-23T00:37:16;21.50;55.20
37285;DHT22;23172;53.550;9.964;2022-07-23T00:42:18;21.50;55.30
37285;DHT22;23172;53.550;9.964;2022-07-23T00:47:20;21.40;55.50
37285;DHT22;23172;53.550;9.964;2022-07-23T00:52:23;21.40;55.50
37285;DHT22;23172;53.550;9.964;2022-07-23T00:57:25;21.40;55.60
37285;DHT22;23172;53.550;9.964;2022-07-23T01:02:27;21.30;55.80
37285;DHT22;23172;53.550;9.964;2022-07-23T01:07:30;21.20;56.00
37285;DHT22;23172;53.550;9.964;2022-07-23T01:12:32;21.20;56.50
37285;DHT22;23172;53.550;9.964;2022-07-23T01:17:34;21.10;56.20
37285;DHT22;23172;53.550;9.964;2022-07-23T01:22:37;21.10;56.30
37285;DHT22;23172;53.550;9.964;2022-07-23T01:27:39;21.10;56.50
37285;DHT22;23172;53.550;9.964;2022-07-23T01:32:41;21.10;56.60
37285;DHT22;23172;53.550;9.964;2022-07-23T01:37:44;21.10;56.70
37285;DHT22;23172;53.550;9.964;2022-07-23T01:42:46;21.10;56.80
37285;DHT22;23172;53.550;9.964;2022-07-23T01:47:48;21.10;56.90
37285;DHT22;23172;53.550;9.964;2022-07-23T01:52:51;21.10;57.10
37285;DHT22;23172;53.550;9.964;2022-07-23T01:57:53;21.10;57.20
37285;DHT22;23172;53.550;9.964;2022-07-23T02:02:55;21.10;57.20
37285;DHT22;23172;53.550;9.964;2022-07-23T02:08:00;21.10;57.20
37285;DHT22;23172;53.550;9.964;2022-07-23T02:13:02;21.10;57.20
37285;DHT22;23172;53.550;9.964;2022-07-23T02:18:04;21.10;57.10
37285;DHT22;23172;53.550;9.964;2022-07-23T02:23:07;21.10;57.10
37285;DHT22;23172;53.550;9.964;2022-07-23T02:28:09;21.20;57.00
37285;DHT22;23172;53.550;9.964;2022-07-23T02:33:11;21.10;57.00
37285;DHT22;23172;53.550;9.964;2022-07-23T02:38:14;21.00;57.00
37285;DHT22;23172;53.550;9.964;2022-07-23T02:43:16;21.00;57.20
37285;DHT22;23172;53.550;9.964;2022-07-23T02:48:18;20.90;57.30
37285;DHT22;23172;53.550;9.964;2022-07-23T02:53:21;20.80;57.50
37285;DHT22;23172;53.550;9.964;2022-07-23T02:58:23;20.80;57.70
37285;DHT22;23172;53.550;9.964;2022-07-23T03:03:25;20.80;57.80
37285;DHT22;23172;53.550;9.964;2022-07-23T03:08:28;20.80;57.90
37285;DHT22;23172;53.550;9.964;2022-07-23T03:13:30;20.80;58.00
37285;DHT22;23172;53.550;9.964;2022-07-23T03:18:32;20.80;58.20
37285;DHT22;23172;53.550;9.964;2022-07-23T03:23:35;20.70;58.30
37285;DHT22;23172;53.550;9.964;2022-07-23T03:28:37;20.70;58.50
37285;DHT22;23172;53.550;9.964;2022-07-23T03:33:39;20.70;59.20
37285;DHT22;23172;53.550;9.964;2022-07-23T03:38:43;20.70;58.70
37285;DHT22;23172;53.550;9.964;2022-07-23T03:43:44;20.70;59.40
37285;DHT22;23172;53.550;9.964;2022-07-23T03:48:46;20.70;58.80
37285;DHT22;23172;53.550;9.964;2022-07-23T03:53:49;20.70;59.00
37285;DHT22;23172;53.550;9.964;2022-07-23T03:58:51;20.60;59.00
37285;DHT22;23172;53.550;9.964;2022-07-23T04:03:53;20.60;59.30
37285;DHT22;23172;53.550;9.964;2022-07-23T04:08:56;20.60;59.40
37285;DHT22;23172;53.550;9.964;2022-07-23T04:13:58;20.70;59.50
37285;DHT22;23172;53.550;9.964;2022-07-23T04:19:00;20.70;59.50
37285;DHT22;23172;53.550;9.964;2022-07-23T04:24:06;20.70;59.60
37285;DHT22;23172;53.550;9.964;2022-07-23T04:29:08;20.80;59.70
37285;DHT22;23172;53.550;9.964;2022-07-23T04:34:10;20.80;59.70
37285;DHT22;23172;53.550;9.964;2022-07-23T04:39:13;20.80;59.70
37285;DHT22;23172;53.550;9.964;2022-07-23T04:44:15;20.80;59.80
37285;DHT22;23172;53.550;9.964;2022-07-23T04:49:17;20.70;60.00
37285;DHT22;23172;53.550;9.964;2022-07-23T04:54:20;20.70;60.30
37285;DHT22;23172;53.550;9.964;2022-07-23T04:59:22;20.70;60.40
37285;DHT22;23172;53.550;9.964;2022-07-23T05:04:23;20.70;60.40
37285;DHT22;23172;53.550;9.964;2022-07-23T05:09:27;20.70;60.20
37285;DHT22;23172;53.550;9.964;2022-07-23T05:14:28;20.60;60.10
37285;DHT22;23172;53.550;9.964;2022-07-23T05:19:30;20.60;60.00
37285;DHT22;23172;53.550;9.964;2022-07-23T05:24:33;20.70;59.80
37285;DHT22;23172;53.550;9.964;2022-07-23T05:29:35;20.70;59.50
37285;DHT22;23172;53.550;9.964;2022-07-23T05:34:37;20.70;59.40
37285;DHT22;23172;53.550;9.964;2022-07-23T05:39:40;20.70;59.20
37285;DHT22;23172;53.550;9.964;2022-07-23T05:44:42;20.70;58.90
37285;DHT22;23172;53.550;9.964;2022-07-23T05:49:44;20.80;58.90
37285;DHT22;23172;53.550;9.964;2022-07-23T05:54:47;20.80;58.90
37285;DHT22;23172;53.550;9.964;2022-07-23T05:59:48;20.80;58.90
37285;DHT22;23172;53.550;9.964;2022-07-23T06:04:50;20.90;58.90
37285;DHT22;23172;53.550;9.964;2022-07-23T06:09:53;20.90;58.90
37285;DHT22;23172;53.550;9.964;2022-07-23T06:14:55;21.00;58.90
37285;DHT22;23172;53.550;9.964;2022-07-23T06:19:57;21.00;58.90
37285;DHT22;23172;53.550;9.964;2022-07-23T06:25:00;21.00;59.00
37285;DHT22;23172;53.550;9.964;2022-07-23T06:30:02;21.10;59.00
37285;DHT22;23172;53.550;9.964;2022-07-23T06:35:05;21.10;59.00
37285;DHT22;23172;53.550;9.964;2022-07-23T06:40:09;21.00;59.30
37285;DHT22;23172;53.550;9.964;2022-07-23T06:45:12;21.00;59.60
37285;DHT22;23172;53.550;9.964;2022-07-23T06:50:14;21.00;59.70
37285;DHT22;23172;53.550;9.964;2022-07-23T06:55:17;21.10;59.60
37285;DHT22;23172;53.550;9.964;2022-07-23T07:00:19;21.10;59.40
37285;DHT22;23172;53.550;9.964;2022-07-23T07:05:21;21.20;59.10
37285;DHT22;23172;53.550;9.964;2022-07-23T07:10:24;21.30;58.70
37285;DHT22;23172;53.550;9.964;2022-07-23T07:15:26;21.30;58.60
37285;DHT22;23172;53.550;9.964;2022-07-23T07:20:28;21.20;58.40
37285;DHT22;23172;53.550;9.964;2022-07-23T07:25:31;21.30;58.20
37285;DHT22;23172;53.550;9.964;2022-07-23T07:30:33;21.20;58.20
37285;DHT22;23172;53.550;9.964;2022-07-23T07:35:35;21.20;58.60
37285;DHT22;23172;53.550;9.964;2022-07-23T07:40:38;21.30;58.60
37285;DHT22;23172;53.550;9.964;2022-07-23T07:45:39;21.30;58.60
37285;DHT22;23172;53.550;9.964;2022-07-23T07:50:41;21.40;58.40
37285;DHT22;23172;53.550;9.964;2022-07-23T07:55:45;21.60;58.20
37285;DHT22;23172;53.550;9.964;2022-07-23T08:00:47;21.70;57.90
37285;DHT22;23172;53.550;9.964;2022-07-23T08:05:48;21.90;57.70
37285;DHT22;23172;53.550;9.964;2022-07-23T08:10:52;22.00;57.20
37285;DHT22;23172;53.550;9.964;2022-07-23T08:15:54;22.10;56.80
37285;DHT22;23172;53.550;9.964;2022-07-23T08:20:55;22.10;56.50
37285;DHT22;23172;53.550;9.964;2022-07-23T08:25:59;22.00;56.40
37285;DHT22;23172;53.550;9.964;2022-07-23T08:31:02;21.80;57.60
37285;DHT22;23172;53.550;9.964;2022-07-23T08:36:06;21.50;58.20
37285;DHT22;23172;53.550;9.964;2022-07-23T08:41:09;21.40;58.60
37285;DHT22;23172;53.550;9.964;2022-07-23T08:46:13;21.30;58.60
37285;DHT22;23172;53.550;9.964;2022-07-23T08:51:15;21.40;58.50
37285;DHT22;23172;53.550;9.964;2022-07-23T08:56:19;21.50;58.30
37285;DHT22;23172;53.550;9.964;2022-07-23T09:01:21;21.60;58.30
37285;DHT22;23172;53.550;9.964;2022-07-23T09:06:22;21.80;57.90
37285;DHT22;23172;53.550;9.964;2022-07-23T09:11:26;22.00;57.70
37285;DHT22;23172;53.550;9.964;2022-07-23T09:16:29;22.30;57.40
37285;DHT22;23172;53.550;9.964;2022-07-23T09:21:32;22.70;56.50
37285;DHT22;23172;53.550;9.964;2022-07-23T09:26:37;22.80;55.60
37285;DHT22;23172;53.550;9.964;2022-07-23T09:31:48;22.80;55.30
37285;DHT22;23172;53.550;9.964;2022-07-23T09:36:52;23.00;55.00
37285;DHT22;23172;53.550;9.964;2022-07-23T09:41:56;23.60;54.70
37285;DHT22;23172;53.550;9.964;2022-07-23T09:46:59;24.10;53.80
37285;DHT22;23172;53.550;9.964;2022-07-23T09:52:02;24.10;52.50
37285;DHT22;23172;53.550;9.964;2022-07-23T09:57:07;24.10;51.80
37285;DHT22;23172;53.550;9.964;2022-07-23T10:02:14;23.80;51.90
37285;DHT22;23172;53.550;9.964;2022-07-23T10:07:17;23.70;51.50
37285;DHT22;23172;53.550;9.964;2022-07-23T10:12:20;23.90;51.30
37285;DHT22;23172;53.550;9.964;2022-07-23T10:17:36;23.70;51.00
37285;DHT22;23172;53.550;9.964;2022-07-23T10:22:42;23.50;51.10
37285;DHT22;23172;53.550;9.964;2022-07-23T10:33:30;23.30;50.70
37285;DHT22;23172;53.550;9.964;2022-07-23T10:38:40;23.20;50.60
37285;DHT22;23172;53.550;9.964;2022-07-23T10:44:05;23.70;50.60
37285;DHT22;23172;53.550;9.964;2022-07-23T10:49:27;24.20;49.70
37285;DHT22;23172;53.550;9.964;2022-07-23T10:54:29;25.10;49.00
37285;DHT22;23172;53.550;9.964;2022-07-23T11:05:14;26.90;46.40
37285;DHT22;23172;53.550;9.964;2022-07-23T11:10:31;26.60;46.00
37285;DHT22;23172;53.550;9.964;2022-07-23T11:16:04;26.10;45.70
37285;DHT22;23172;53.550;9.964;2022-07-23T11:26:55;26.10;45.70
37285;DHT22;23172;53.550;9.964;2022-07-23T11:32:00;27.10;44.60
37285;DHT22;23172;53.550;9.964;2022-07-23T11:37:03;27.80;43.60
37285;DHT22;23172;53.550;9.964;2022-07-23T11:42:07;28.30;42.50
37285;DHT22;23172;53.550;9.964;2022-07-23T11:47:10;27.90;41.70
37285;DHT22;23172;53.550;9.964;2022-07-23T11:52:14;27.20;41.70
37285;DHT22;23172;53.550;9.964;2022-07-23T11:57:17;26.40;42.30
37285;DHT22;23172;53.550;9.964;2022-07-23T12:02:21;25.60;43.30
37285;DHT22;23172;53.550;9.964;2022-07-23T12:07:27;25.00;44.40
37285;DHT22;23172;53.550;9.964;2022-07-23T12:12:35;24.50;45.40
37285;DHT22;23172;53.550;9.964;2022-07-23T12:17:40;24.30;46.40
37285;DHT22;23172;53.550;9.964;2022-07-23T12:22:44;24.30;46.80
37285;DHT22;23172;53.550;9.964;2022-07-23T12:27:57;24.10;47.80
37285;DHT22;23172;53.550;9.964;2022-07-23T12:33:01;23.90;47.70
37285;DHT22;23172;53.550;9.964;2022-07-23T12:38:04;23.70;48.20
37285;DHT22;23172;53.550;9.964;2022-07-23T12:43:08;23.60;48.80
37285;DHT22;23172;53.550;9.964;2022-07-23T12:48:21;24.20;48.70
37285;DHT22;23172;53.550;9.964;2022-07-23T12:53:24;25.20;47.30
37285;DHT22;23172;53.550;9.964;2022-07-23T12:58:26;25.40;46.70
37285;DHT22;23172;53.550;9.964;2022-07-23T13:03:35;25.40;46.60
37285;DHT22;23172;53.550;9.964;2022-07-23T13:08:38;25.30;46.20
37285;DHT22;23172;53.550;9.964;2022-07-23T13:13:41;25.00;46.20
37285;DHT22;23172;53.550;9.964;2022-07-23T13:18:44;24.90;46.40
37285;DHT22;23172;53.550;9.964;2022-07-23T13:23:46;25.00;46.00
37285;DHT22;23172;53.550;9.964;2022-07-23T13:28:48;25.10;45.70
37285;DHT22;23172;53.550;9.964;2022-07-23T13:33:52;25.10;45.40
37285;DHT22;23172;53.550;9.964;2022-07-23T13:38:54;24.80;45.50
37285;DHT22;23172;53.550;9.964;2022-07-23T13:43:56;25.10;45.40
37285;DHT22;23172;53.550;9.964;2022-07-23T13:49:00;24.90;45.50
37285;DHT22;23172;53.550;9.964;2022-07-23T13:54:02;24.60;46.00
37285;DHT22;23172;53.550;9.964;2022-07-23T13:59:04;24.60;46.40
37285;DHT22;23172;53.550;9.964;2022-07-23T14:04:07;24.90;46.00
37285;DHT22;23172;53.550;9.964;2022-07-23T14:09:08;24.80;45.80
37285;DHT22;23172;53.550;9.964;2022-07-23T14:14:10;24.40;46.30
37285;DHT22;23172;53.550;9.964;2022-07-23T14:19:14;24.10;47.10
37285;DHT22;23172;53.550;9.964;2022-07-23T14:24:16;24.10;47.30
37285;DHT22;23172;53.550;9.964;2022-07-23T14:29:18;24.30;47.10
37285;DHT22;23172;53.550;9.964;2022-07-23T14:34:21;24.30;46.80
37285;DHT22;23172;53.550;9.964;2022-07-23T14:39:23;24.30;46.60
37285;DHT22;23172;53.550;9.964;2022-07-23T14:44:25;24.20;46.70
37285;DHT22;23172;53.550;9.964;2022-07-23T14:49:28;24.00;47.10
37285;DHT22;23172;53.550;9.964;2022-07-23T14:54:30;23.90;47.30
37285;DHT22;23172;53.550;9.964;2022-07-23T14:59:32;23.90;47.40
37285;DHT22;23172;53.550;9.964;2022-07-23T15:04:35;23.80;47.30
37285;DHT22;23172;53.550;9.964;2022-07-23T15:09:37;23.70;47.50
37285;DHT22;23172;53.550;9.964;2022-07-23T15:14:39;23.60;47.80
37285;DHT22;23172;53.550;9.964;2022-07-23T15:19:42;23.50;47.90
37285;DHT22;23172;53.550;9.964;2022-07-23T15:24:44;23.50;47.90
37285;DHT22;23172;53.550;9.964;2022-07-23T15:29:46;23.50;47.90
37285;DHT22;23172;53.550;9.964;2022-07-23T15:34:49;23.50;48.10
37285;DHT22;23172;53.550;9.964;2022-07-23T15:39:51;23.30;48.60
37285;DHT22;23172;53.550;9.964;2022-07-23T15:44:53;23.20;48.70
37285;DHT22;23172;53.550;9.964;2022-07-23T15:49:56;23.30;48.90
37285;DHT22;23172;53.550;9.964;2022-07-23T15:54:58;23.40;48.40
37285;DHT22;23172;53.550;9.964;2022-07-23T15:59:59;23.40;48.30
37285;DHT22;23172;53.550;9.964;2022-07-23T16:05:03;23.40;48.30
37285;DHT22;23172;53.550;9.964;2022-07-23T16:10:23;23.40;48.30
37285;DHT22;23172;53.550;9.964;2022-07-23T16:15:25;23.40;48.40
37285;DHT22;23172;53.550;9.964;2022-07-23T16:20:29;23.30;48.50
37285;DHT22;23172;53.550;9.964;2022-07-23T16:25:30;23.20;48.60
37285;DHT22;23172;53.550;9.964;2022-07-23T16:30:32;22.90;48.80
37285;DHT22;23172;53.550;9.964;2022-07-23T16:35:36;22.80;49.10
37285;DHT22;23172;53.550;9.964;2022-07-23T16:40:38;22.80;49.10
37285;DHT22;23172;53.550;9.964;2022-07-23T16:45:40;22.70;49.30
37285;DHT22;23172;53.550;9.964;2022-07-23T16:50:43;22.70;49.40
37285;DHT22;23172;53.550;9.964;2022-07-23T16:55:45;22.70;49.30
37285;DHT22;23172;53.550;9.964;2022-07-23T17:00:47;22.70;49.30
37285;DHT22;23172;53.550;9.964;2022-07-23T17:05:51;22.60;49.40
37285;DHT22;23172;53.550;9.964;2022-07-23T17:10:53;22.60;49.50
37285;DHT22;23172;53.550;9.964;2022-07-23T17:15:55;22.60;49.60
37285;DHT22;23172;53.550;9.964;2022-07-23T17:20:58;22.50;49.80
37285;DHT22;23172;53.550;9.964;2022-07-23T17:26:00;22.50;49.90
37285;DHT22;23172;53.550;9.964;2022-07-23T17:31:02;22.50;50.10
37285;DHT22;23172;53.550;9.964;2022-07-23T17:36:06;22.40;50.20
37285;DHT22;23172;53.550;9.964;2022-07-23T17:41:08;22.40;50.40
37285;DHT22;23172;53.550;9.964;2022-07-23T17:46:10;22.30;50.60
37285;DHT22;23172;53.550;9.964;2022-07-23T17:51:13;22.30;50.70
37285;DHT22;23172;53.550;9.964;2022-07-23T17:56:15;22.30;50.90
37285;DHT22;23172;53.550;9.964;2022-07-23T18:01:17;22.30;51.10
37285;DHT22;23172;53.550;9.964;2022-07-23T18:06:20;22.30;51.20
37285;DHT22;23172;53.550;9.964;2022-07-23T18:11:24;22.20;51.20
37285;DHT22;23172;53.550;9.964;2022-07-23T18:16:26;22.20;51.30
37285;DHT22;23172;53.550;9.964;2022-07-23T18:21:29;22.00;51.60
37285;DHT22;23172;53.550;9.964;2022-07-23T18:26:31;22.00;51.80
37285;DHT22;23172;53.550;9.964;2022-07-23T18:31:33;21.90;51.90
37285;DHT22;23172;53.550;9.964;2022-07-23T18:36:36;21.80;52.10
37285;DHT22;23172;53.550;9.964;2022-07-23T18:41:38;21.70;52.30
37285;DHT22;23172;53.550;9.964;2022-07-23T18:46:40;21.50;52.40
37285;DHT22;23172;53.550;9.964;2022-07-23T18:51:43;21.40;52.50
37285;DHT22;23172;53.550;9.964;2022-07-23T18:56:45;21.40;52.50
37285;DHT22;23172;53.550;9.964;2022-07-23T19:01:47;21.30;52.50
37285;DHT22;23172;53.550;9.964;2022-07-23T19:06:50;21.30;52.50
37285;DHT22;23172;53.550;9.964;2022-07-23T19:11:52;21.20;52.40
37285;DHT22;23172;53.550;9.964;2022-07-23T19:16:54;21.20;52.50
37285;DHT22;23172;53.550;9.964;2022-07-23T19:21:58;21.20;52.50
37285;DHT22;23172;53.550;9.964;2022-07-23T19:27:00;21.20;52.50
37285;DHT22;23172;53.550;9.964;2022-07-23T19:32:02;21.10;52.60
37285;DHT22;23172;53.550;9.964;2022-07-23T19:37:06;21.00;52.70
37285;DHT22;23172;53.550;9.964;2022-07-23T19:42:12;21.00;52.90
37285;DHT22;23172;53.550;9.964;2022-07-23T19:47:14;21.00;53.00
37285;DHT22;23172;53.550;9.964;2022-07-23T19:52:18;20.90;53.10
37285;DHT22;23172;53.550;9.964;2022-07-23T19:57:19;20.90;53.20
37285;DHT22;23172;53.550;9.964;2022-07-23T20:02:21;20.90;53.40
37285;DHT22;23172;53.550;9.964;2022-07-23T20:07:24;20.90;53.40
37285;DHT22;23172;53.550;9.964;2022-07-23T20:12:26;20.90;53.40
37285;DHT22;23172;53.550;9.964;2022-07-23T20:17:28;20.90;53.40
37285;DHT22;23172;53.550;9.964;2022-07-23T20:22:31;20.90;53.50
37285;DHT22;23172;53.550;9.964;2022-07-23T20:27:33;20.80;53.40
37285;DHT22;23172;53.550;9.964;2022-07-23T20:32:35;20.80;53.40
37285;DHT22;23172;53.550;9.964;2022-07-23T20:37:39;20.80;53.40
37285;DHT22;23172;53.550;9.964;2022-07-23T20:42:40;20.70;53.50
37285;DHT22;23172;53.550;9.964;2022-07-23T20:47:42;20.70;53.60
37285;DHT22;23172;53.550;9.964;2022-07-23T20:52:46;20.70;53.70
37285;DHT22;23172;53.550;9.964;2022-07-23T20:57:47;20.70;53.70
37285;DHT22;23172;53.550;9.964;2022-07-23T21:02:49;20.60;53.80
37285;DHT22;23172;53.550;9.964;2022-07-23T21:07:52;20.50;54.00
37285;DHT22;23172;53.550;9.964;2022-07-23T21:12:54;20.50;54.30
37285;DHT22;23172;53.550;9.964;2022-07-23T21:17:56;20.40;54.40
37285;DHT22;23172;53.550;9.964;2022-07-23T21:23:00;20.40;54.60
37285;DHT22;23172;53.550;9.964;2022-07-23T21:28:01;20.30;54.60
37285;DHT22;23172;53.550;9.964;2022-07-23T21:33:03;20.30;54.70
37285;DHT22;23172;53.550;9.964;2022-07-23T21:38:06;20.20;54.80
37285;DHT22;23172;53.550;9.964;2022-07-23T21:43:08;20.30;55.00
37285;DHT22;23172;53.550;9.964;2022-07-23T21:48:10;20.20;55.00
37285;DHT22;23172;53.550;9.964;2022-07-23T21:53:14;20.20;55.10
37285;DHT22;23172;53.550;9.964;2022-07-23T21:58:16;20.20;55.20
37285;DHT22;23172;53.550;9.964;2022-07-23T22:03:18;20.20;55.30
37285;DHT22;23172;53.550;9.964;2022-07-23T22:08:21;20.10;55.40
37285;DHT22;23172;53.550;9.964;2022-07-23T22:13:23;20.00;55.60
37285;DHT22;23172;53.550;9.964;2022-07-23T22:18:25;20.00;55.70
37285;DHT22;23172;53.550;9.964;2022-07-23T22:23:28;20.00;55.80
37285;DHT22;23172;53.550;9.964;2022-07-23T22:28:30;20.00;56.00
37285;DHT22;23172;53.550;9.964;2022-07-23T22:33:32;20.00;56.10
37285;DHT22;23172;53.550;9.964;2022-07-23T22:38:35;20.00;56.30
37285;DHT22;23172;53.550;9.964;2022-07-23T22:43:37;20.00;56.40
37285;DHT22;23172;53.550;9.964;2022-07-23T22:48:39;20.00;56.50
37285;DHT22;23172;53.550;9.964;2022-07-23T22:53:42;20.00;56.50
37285;DHT22;23172;53.550;9.964;2022-07-23T22:58:44;20.00;56.70
37285;DHT22;23172;53.550;9.964;2022-07-23T23:03:46;20.00;56.70
37285;DHT22;23172;53.550;9.964;2022-07-23T23:08:49;20.00;56.80
37285;DHT22;23172;53.550;9.964;2022-07-23T23:13:50;20.00;56.90
37285;DHT22;23172;53.550;9.964;2022-07-23T23:18:52;19.90;57.00
37285;DHT22;23172;53.550;9.964;2022-07-23T23:23:55;19.90;57.10
37285;DHT22;23172;53.550;9.964;2022-07-23T23:28:57;19.90;57.30
37285;DHT22;23172;53.550;9.964;2022-07-23T23:33:59;19.90;57.40
37285;DHT22;23172;53.550;9.964;2022-07-23T23:39:03;19.80;57.60
37285;DHT22;23172;53.550;9.964;2022-07-23T23:44:04;19.90;57.70
37285;DHT22;23172;53.550;9.964;2022-07-23T23:49:06;19.80;57.90
37285;DHT22;23172;53.550;9.964;2022-07-23T23:54:10;19.90;58.20
37285;DHT22;23172;53.550;9.964;2022-07-23T23:59:14;19.90;58.40
